Time;durP1;ratioP1;P1;durP2;ratioP2;P2;SDS_P1;SDS_P2;PMS_P1;PMS_P2;Temp;Humidity;BMP_temperature;BMP_pressure;BME280_temperature;BME280_humidity;BME280_pressure;Samples;Min_cycle;Max_cycle;Signal;HPM_P1;HPM_P2
2023/09/18 00:01:50;;;;;;;5.03;4.53;;;17.40;99.90;;;;;;4962459;28;20031;-84
2023/09/18 00:04:15;;;;;;;4.95;4.47;;;17.40;99.90;;;;;;4960612;28;20467;-84
2023/09/18 00:06:41;;;;;;;5.18;4.78;;;17.60;99.90;;;;;;4949451;28;20035;-84
2023/09/18 00:09:11;;;;;;;6.00;5.43;;;17.60;99.90;;;;;;4950613;28;20097;-84
2023/09/18 00:11:37;;;;;;;;;;;17.60;99.90;;;;;;4956161;28;20058;-84
2023/09/18 00:14:03;;;;;;;4.55;3.33;;;17.70;99.90;;;;;;4964924;28;19923;-84
2023/09/18 00:16:29;;;;;;;5.28;4.45;;;17.70;99.90;;;;;;4958190;28;20503;-84
2023/09/18 00:18:55;;;;;;;5.90;4.82;;;17.60;99.90;;;;;;4957919;28;20034;-84
2023/09/18 00:21:21;;;;;;;5.75;5.18;;;17.60;99.90;;;;;;4947550;28;20024;-84
2023/09/18 00:23:46;;;;;;;5.63;5.13;;;17.60;99.90;;;;;;4956639;28;20392;-84
2023/09/18 00:26:12;;;;;;;5.63;5.03;;;17.70;99.90;;;;;;4940499;28;20034;-84
2023/09/18 00:28:40;;;;;;;5.93;5.25;;;17.60;99.90;;;;;;4947363;28;20045;-84
2023/09/18 00:31:06;;;;;;;5.35;4.88;;;17.70;99.90;;;;;;4950860;28;20023;-84
2023/09/18 00:33:32;;;;;;;5.40;4.90;;;17.70;99.90;;;;;;4948143;28;20414;-84
2023/09/18 00:35:58;;;;;;;5.85;5.35;;;17.80;99.90;;;;;;4950735;28;20606;-85
2023/09/18 00:38:24;;;;;;;6.97;6.03;;;17.80;99.90;;;;;;4964225;28;20134;-85
2023/09/18 00:40:49;;;;;;;5.97;5.38;;;17.80;99.90;;;;;;4964111;28;20029;-85
2023/09/18 00:43:15;;;;;;;5.68;5.13;;;17.70;99.90;;;;;;4948297;28;20053;-84
2023/09/18 00:45:48;;;;;;;6.43;5.82;;;17.60;99.90;;;;;;4965064;28;20030;-84
2023/09/18 00:48:17;;;;;;;5.97;5.28;;;17.60;99.90;;;;;;4947495;28;20042;-84
2023/09/18 00:50:48;;;;;;;5.95;5.15;;;17.60;99.90;;;;;;4966929;28;20045;-86
2023/09/18 00:53:18;;;;;;;5.47;4.80;;;17.50;99.90;;;;;;4962763;28;20035;-85
2023/09/18 00:55:43;;;;;;;5.30;4.80;;;17.50;99.90;;;;;;4964291;28;20027;-85
2023/09/18 00:58:10;;;;;;;4.93;4.43;;;17.50;99.90;;;;;;4963800;28;20108;-85
2023/09/18 01:00:36;;;;;;;7.57;4.57;;;17.50;99.90;;;;;;4957540;28;20050;-85
2023/09/18 01:03:03;;;;;;;6.47;4.97;;;17.40;99.90;;;;;;4947027;28;20124;-85
2023/09/18 01:05:35;;;;;;;7.55;5.13;;;17.50;99.90;;;;;;5049126;28;20123;-85
2023/09/18 01:08:02;;;;;;;5.03;4.53;;;17.60;99.90;;;;;;4961523;28;20027;-85
2023/09/18 01:10:38;;;;;;;6.28;4.65;;;17.50;99.90;;;;;;4945946;28;20031;-84
2023/09/18 01:13:35;;;;;;;6.18;5.57;;;17.50;99.90;;;;;;4944414;28;20062;-85
2023/09/18 01:16:39;;;;;;;7.57;4.88;;;17.50;99.90;;;;;;4945898;28;20031;-84
2023/09/18 01:19:05;;;;;;;5.30;4.10;;;17.40;99.90;;;;;;4910373;29;20047;-85
2023/09/18 01:21:31;;;;;;;5.13;4.45;;;17.40;99.90;;;;;;4912137;29;20038;-85
2023/09/18 01:23:56;;;;;;;5.53;4.88;;;17.40;99.90;;;;;;4911561;28;20043;-84
2023/09/18 01:26:22;;;;;;;7.25;5.10;;;17.40;99.90;;;;;;4911249;28;20162;-85
2023/09/18 01:28:48;;;;;;;5.30;4.80;;;17.40;99.90;;;;;;4920603;28;20079;-84
2023/09/18 01:31:13;;;;;;;4.55;4.15;;;17.50;99.90;;;;;;4926955;29;20111;-84
2023/09/18 01:33:40;;;;;;;4.78;4.32;;;17.60;99.90;;;;;;4914871;28;20043;-84
2023/09/18 01:36:08;;;;;;;5.03;4.53;;;17.60;99.90;;;;;;4911065;29;20529;-84
2023/09/18 01:38:35;;;;;;;5.53;4.55;;;17.60;99.90;;;;;;4911606;28;20031;-85
2023/09/18 01:41:01;;;;;;;6.00;4.60;;;17.60;99.90;;;;;;4910937;29;20641;-84
2023/09/18 01:43:27;;;;;;;6.70;5.07;;;17.70;99.90;;;;;;5010317;28;20028;-84
2023/09/18 01:45:54;;;;;;;6.47;4.60;;;17.70;99.90;;;;;;4894308;28;20049;-84
2023/09/18 01:48:19;;;;;;;5.30;4.80;;;17.70;99.90;;;;;;4911710;29;20058;-84
2023/09/18 01:50:45;;;;;;;6.53;5.05;;;17.70;99.90;;;;;;4910793;29;20028;-85
2023/09/18 01:53:11;;;;;;;6.32;4.72;;;17.70;99.90;;;;;;5012126;28;20414;-85
2023/09/18 01:55:38;;;;;;;5.82;4.47;;;18.00;99.90;;;;;;4933873;28;20631;-85
2023/09/18 01:58:03;;;;;;;5.43;4.53;;;18.00;99.90;;;;;;4946800;28;20050;-84
2023/09/18 02:00:30;;;;;;;8.18;4.18;;;18.10;99.90;;;;;;4964315;28;20498;-86
2023/09/18 02:02:56;;;;;;;5.00;4.00;;;18.10;99.90;;;;;;4963020;28;20108;-85
2023/09/18 02:05:22;;;;;;;4.70;3.92;;;18.10;99.90;;;;;;4962453;28;20475;-85
2023/09/18 02:07:48;;;;;;;5.10;3.78;;;18.20;99.90;;;;;;4950459;28;20027;-84
2023/09/18 02:10:13;;;;;;;5.10;3.33;;;18.30;99.90;;;;;;4937613;28;20394;-84
2023/09/18 02:12:39;;;;;;;5.28;3.08;;;18.30;99.90;;;;;;4958281;28;20054;-85
2023/09/18 02:15:06;;;;;;;6.05;3.63;;;18.30;99.90;;;;;;4945211;28;20070;-85
2023/09/18 02:17:32;;;;;;;7.57;4.82;;;18.40;99.90;;;;;;4952730;28;20046;-86
2023/09/18 02:20:00;;;;;;;4.97;3.75;;;18.60;99.90;;;;;;4943653;28;20019;-85
2023/09/18 02:22:26;;;;;;;4.50;3.47;;;18.50;99.90;;;;;;4929364;28;20037;-86
2023/09/18 02:24:52;;;;;;;4.45;3.50;;;18.50;99.90;;;;;;4957330;28;20039;-85
2023/09/18 02:27:18;;;;;;;4.25;2.95;;;18.50;99.90;;;;;;4959318;28;20376;-85
2023/09/18 02:29:45;;;;;;;4.35;2.72;;;18.60;99.90;;;;;;4945936;28;20383;-84
2023/09/18 02:32:10;;;;;;;3.83;3.13;;;18.60;99.90;;;;;;4947806;28;20125;-84
2023/09/18 02:34:36;;;;;;;4.55;2.80;;;18.70;99.90;;;;;;4960563;28;20019;-84
2023/09/18 02:37:02;;;;;;;3.75;2.88;;;18.60;99.90;;;;;;4949329;28;20038;-84
2023/09/18 02:39:27;;;;;;;4.30;3.72;;;18.80;99.90;;;;;;4961866;28;20027;-84
2023/09/18 02:41:54;;;;;;;3.92;3.03;;;18.90;99.90;;;;;;4960287;28;20035;-85
2023/09/18 02:44:19;;;;;;;4.50;3.08;;;18.80;99.90;;;;;;4944675;28;20435;-83
2023/09/18 02:46:45;;;;;;;4.80;3.05;;;18.80;99.90;;;;;;4955539;28;20031;-84
2023/09/18 02:49:12;;;;;;;4.97;2.92;;;18.80;99.90;;;;;;4948938;28;20043;-85
2023/09/18 02:51:37;;;;;;;5.40;3.45;;;18.80;99.90;;;;;;4945084;28;20023;-86
2023/09/18 02:54:03;;;;;;;5.03;2.92;;;18.80;99.90;;;;;;4950145;28;20027;-86
2023/09/18 02:56:29;;;;;;;4.78;2.40;;;18.80;99.90;;;;;;4946996;28;20046;-83
2023/09/18 02:58:55;;;;;;;2.97;2.35;;;18.80;99.90;;;;;;4941660;28;20035;-85
2023/09/18 03:01:21;;;;;;;6.18;2.67;;;18.80;99.90;;;;;;4947843;28;20081;-85
2023/09/18 03:03:47;;;;;;;2.85;2.58;;;18.90;99.90;;;;;;4961843;28;20042;-85
2023/09/18 03:06:13;;;;;;;4.97;2.65;;;18.80;99.90;;;;;;4932897;28;20031;-85
2023/09/18 03:08:38;;;;;;;3.75;2.38;;;18.90;99.90;;;;;;4928457;28;20475;-85
2023/09/18 03:11:12;;;;;;;3.80;2.58;;;18.90;99.90;;;;;;4956710;28;20035;-84
2023/09/18 03:13:46;;;;;;;4.75;2.80;;;18.90;99.90;;;;;;4946355;28;20409;-85
2023/09/18 03:16:12;;;;;;;2.45;1.85;;;18.80;99.90;;;;;;4961639;28;20031;-84
2023/09/18 03:18:38;;;;;;;4.97;2.53;;;18.80;99.90;;;;;;4943276;28;20062;-85
2023/09/18 03:21:04;;;;;;;2.88;2.25;;;18.90;99.90;;;;;;4951158;28;20027;-84
2023/09/18 03:23:30;;;;;;;5.20;2.63;;;18.90;99.90;;;;;;4964913;28;20038;-83
2023/09/18 03:25:56;;;;;;;4.18;2.80;;;18.90;99.90;;;;;;4946526;28;20506;-84
2023/09/18 03:28:22;;;;;;;3.45;1.98;;;18.90;99.90;;;;;;5051282;28;20030;-83
2023/09/18 03:30:49;;;;;;;2.53;1.40;;;18.90;99.90;;;;;;4949746;28;20033;-84
2023/09/18 03:33:17;;;;;;;4.50;2.35;;;18.90;99.90;;;;;;4957659;28;20113;-84
2023/09/18 03:35:47;;;;;;;3.08;1.77;;;18.90;99.90;;;;;;4965732;28;20596;-84
2023/09/18 03:38:13;;;;;;;4.15;2.50;;;18.90;99.90;;;;;;4962090;28;20130;-83
2023/09/18 03:40:39;;;;;;;2.90;1.52;;;18.90;99.90;;;;;;4949844;28;20161;-84
2023/09/18 03:43:05;;;;;;;3.15;2.30;;;18.90;99.90;;;;;;4935325;28;20080;-84
2023/09/18 03:45:31;;;;;;;5.40;2.30;;;19.00;99.90;;;;;;4946494;28;20026;-84
2023/09/18 03:47:56;;;;;;;2.92;1.70;;;19.00;99.90;;;;;;4947880;28;20038;-83
2023/09/18 03:50:22;;;;;;;6.60;2.30;;;19.00;99.90;;;;;;4946814;28;20303;-84
2023/09/18 03:52:48;;;;;;;3.80;2.03;;;19.00;99.90;;;;;;4947033;28;20067;-84
2023/09/18 03:55:14;;;;;;;2.63;2.03;;;19.10;99.90;;;;;;4952150;28;20023;-84
2023/09/18 03:57:42;;;;;;;3.58;2.20;;;19.00;99.90;;;;;;4961063;28;20043;-84
2023/09/18 04:00:08;;;;;;;3.45;2.28;;;19.00;99.90;;;;;;4951182;28;20032;-84
2023/09/18 04:02:40;;;;;;;6.07;3.95;;;19.10;99.90;;;;;;4962367;28;20037;-84
2023/09/18 04:05:07;;;;;;;4.80;2.95;;;19.30;99.90;;;;;;4958897;28;20038;-84
2023/09/18 04:07:33;;;;;;;6.30;3.08;;;19.20;99.90;;;;;;4948016;28;20480;-83
2023/09/18 04:10:00;;;;;;;4.90;2.88;;;19.30;99.90;;;;;;4947067;28;20406;-84
2023/09/18 04:12:26;;;;;;;4.72;2.72;;;19.20;99.90;;;;;;4944235;28;20054;-83
2023/09/18 04:14:52;;;;;;;4.93;2.75;;;19.30;99.90;;;;;;4951596;28;20033;-84
2023/09/18 04:17:18;;;;;;;5.35;2.97;;;19.20;99.90;;;;;;4932531;28;20034;-84
2023/09/18 04:19:44;;;;;;;3.40;2.70;;;19.20;99.90;;;;;;4938355;28;20115;-84
2023/09/18 04:22:09;;;;;;;4.68;2.67;;;19.20;99.90;;;;;;4962374;28;20480;-84
2023/09/18 04:24:35;;;;;;;4.57;2.83;;;19.20;99.90;;;;;;4947483;28;20110;-83
2023/09/18 04:27:01;;;;;;;4.32;2.80;;;19.20;99.90;;;;;;4946635;28;20034;-86
2023/09/18 04:29:27;;;;;;;4.07;2.15;;;19.20;99.90;;;;;;4959286;28;20033;-84
2023/09/18 04:31:54;;;;;;;3.75;1.88;;;19.20;99.90;;;;;;4949884;28;20481;-85
2023/09/18 04:34:21;;;;;;;5.35;2.55;;;19.20;99.90;;;;;;4964183;28;20062;-84
2023/09/18 04:36:47;;;;;;;3.15;2.05;;;19.10;99.90;;;;;;4950782;28;20039;-85
2023/09/18 04:39:14;;;;;;;3.22;2.33;;;19.20;99.90;;;;;;4951141;28;20031;-84
2023/09/18 04:41:39;;;;;;;3.75;1.90;;;19.20;99.90;;;;;;4950064;28;20058;-84
2023/09/18 04:44:07;;;;;;;3.13;2.15;;;19.10;99.90;;;;;;4947616;28;20023;-86
2023/09/18 04:46:35;;;;;;;4.97;2.08;;;19.20;99.90;;;;;;4947672;28;20058;-86
2023/09/18 04:49:00;;;;;;;3.65;2.10;;;19.10;99.90;;;;;;4963611;28;20046;-85
2023/09/18 04:51:27;;;;;;;4.78;2.25;;;19.20;99.90;;;;;;4965412;28;20053;-85
2023/09/18 04:53:54;;;;;;;2.88;2.17;;;19.10;99.90;;;;;;4965336;28;20477;-85
2023/09/18 04:56:20;;;;;;;3.40;1.75;;;19.20;99.90;;;;;;4946435;28;20023;-85
2023/09/18 04:58:46;;;;;;;3.13;1.88;;;19.20;99.90;;;;;;4958181;28;20031;-85
2023/09/18 05:01:11;;;;;;;3.28;1.23;;;19.20;99.90;;;;;;4958738;28;20027;-85
2023/09/18 05:03:39;;;;;;;4.10;2.60;;;19.20;99.90;;;;;;4955719;28;20035;-84
2023/09/18 05:06:04;;;;;;;3.05;2.72;;;19.30;99.90;;;;;;4949948;28;20029;-84
2023/09/18 05:08:31;;;;;;;4.65;2.33;;;19.40;99.90;;;;;;4947474;28;20050;-85
2023/09/18 05:10:57;;;;;;;3.90;2.45;;;19.40;99.90;;;;;;4948344;28;20076;-84
2023/09/18 05:13:23;;;;;;;5.35;2.33;;;19.40;99.90;;;;;;4960801;28;20051;-85
2023/09/18 05:15:49;;;;;;;5.15;2.17;;;19.40;99.90;;;;;;4946531;28;20019;-84
2023/09/18 05:18:14;;;;;;;8.70;4.63;;;19.50;99.90;;;;;;4961234;28;20043;-85
2023/09/18 05:20:40;;;;;;;6.45;3.97;;;19.70;99.90;;;;;;4964005;28;20110;-86
2023/09/18 05:23:06;;;;;;;6.90;3.88;;;19.70;99.90;;;;;;4926306;28;20491;-81
2023/09/18 05:25:33;;;;;;;9.57;3.97;;;19.70;99.90;;;;;;4946261;28;20038;-79
2023/09/18 05:28:00;;;;;;;8.27;4.60;;;19.70;99.90;;;;;;4945186;28;20505;-81
2023/09/18 05:30:29;;;;;;;6.63;3.95;;;19.70;99.90;;;;;;4959594;28;20047;-80
2023/09/18 05:32:55;;;;;;;9.40;4.47;;;19.70;99.90;;;;;;4960501;28;20023;-83
2023/09/18 05:35:21;;;;;;;8.05;4.47;;;19.70;99.90;;;;;;4964096;28;20728;-81
2023/09/18 05:37:47;;;;;;;9.32;3.97;;;19.70;99.90;;;;;;4946248;28;20528;-82
2023/09/18 05:40:13;;;;;;;6.88;4.30;;;19.60;99.90;;;;;;4964298;28;20100;-83
2023/09/18 05:42:43;;;;;;;5.32;3.22;;;19.60;99.90;;;;;;4949321;28;20031;-82
2023/09/18 05:45:11;;;;;;;2.90;2.25;;;19.50;99.90;;;;;;4960868;28;20045;-82
2023/09/18 05:47:38;;;;;;;4.78;2.10;;;19.50;99.90;;;;;;4960277;28;20026;-82
2023/09/18 05:50:06;;;;;;;4.15;1.85;;;19.40;99.90;;;;;;4945587;28;20030;-82
2023/09/18 05:52:33;;;;;;;3.08;1.42;;;19.40;99.90;;;;;;4935876;28;20031;-82
2023/09/18 05:54:58;;;;;;;4.55;1.45;;;19.40;99.90;;;;;;4947592;28;20078;-82
2023/09/18 05:57:24;;;;;;;4.40;1.60;;;19.40;99.90;;;;;;4945783;28;20483;-81
2023/09/18 05:59:49;;;;;;;4.70;1.45;;;19.40;99.90;;;;;;4956523;28;20042;-82
2023/09/18 06:02:16;;;;;;;2.65;1.65;;;19.40;99.90;;;;;;4945081;28;20061;-82
2023/09/18 06:04:43;;;;;;;6.22;2.63;;;19.40;99.90;;;;;;4949717;28;20039;-82
2023/09/18 06:07:08;;;;;;;3.90;1.67;;;19.40;99.90;;;;;;4944726;28;20061;-83
2023/09/18 06:09:34;;;;;;;3.33;1.92;;;19.40;99.90;;;;;;4961775;28;20124;-82
2023/09/18 06:12:00;;;;;;;3.25;1.20;;;19.40;99.90;;;;;;4948866;28;20047;-84
2023/09/18 06:14:26;;;;;;;3.65;1.42;;;19.40;99.90;;;;;;4954998;28;20046;-82
2023/09/18 06:16:51;;;;;;;2.90;1.30;;;19.50;99.90;;;;;;4961214;28;20035;-81
2023/09/18 06:19:17;;;;;;;4.55;1.52;;;19.50;99.90;;;;;;4949718;28;20027;-82
2023/09/18 06:21:44;;;;;;;2.10;1.20;;;19.50;99.90;;;;;;4930948;28;20424;-84
2023/09/18 06:24:09;;;;;;;4.05;1.35;;;19.40;99.90;;;;;;4954163;28;20031;-81
2023/09/18 06:26:35;;;;;;;2.17;1.10;;;19.50;99.90;;;;;;4960279;28;20038;-83
2023/09/18 06:29:02;;;;;;;3.75;1.15;;;19.50;99.90;;;;;;4947485;28;20030;-82
2023/09/18 06:31:28;;;;;;;2.65;1.40;;;19.50;99.90;;;;;;4959341;28;20046;-82
2023/09/18 06:33:54;;;;;;;4.78;1.50;;;19.50;99.90;;;;;;4961123;28;20065;-81
2023/09/18 06:36:19;;;;;;;2.75;1.55;;;19.60;99.90;;;;;;4956215;28;20023;-81
2023/09/18 06:38:45;;;;;;;4.90;1.52;;;19.60;99.90;;;;;;4961681;28;20037;-82
2023/09/18 06:41:11;;;;;;;3.05;1.17;;;19.70;99.90;;;;;;4955726;28;20870;-82
2023/09/18 06:43:36;;;;;;;3.30;1.10;;;19.70;99.90;;;;;;4942043;28;20073;-82
2023/09/18 06:46:02;;;;;;;3.65;1.15;;;19.70;99.90;;;;;;4959296;28;20483;-81
2023/09/18 06:48:32;;;;;;;5.07;1.17;;;19.70;99.90;;;;;;4949381;28;20478;-82
2023/09/18 06:50:59;;;;;;;2.70;1.00;;;19.70;99.90;;;;;;4944310;28;20039;-82
2023/09/18 06:53:27;;;;;;;2.72;1.10;;;19.60;99.90;;;;;;4943593;28;20057;-83
2023/09/18 06:55:53;;;;;;;2.58;1.48;;;19.60;99.90;;;;;;4959832;28;20325;-81
2023/09/18 06:58:19;;;;;;;3.60;1.55;;;19.60;99.90;;;;;;4941817;28;20540;-81
2023/09/18 07:00:46;;;;;;;3.05;1.30;;;19.70;99.90;;;;;;4960067;28;20034;-81
2023/09/18 07:03:11;;;;;;;4.55;1.27;;;19.60;99.90;;;;;;4948156;28;20039;-82
2023/09/18 07:05:37;;;;;;;1.90;1.00;;;19.70;99.90;;;;;;4947357;28;20114;-81
2023/09/18 07:08:05;;;;;;;2.63;1.20;;;19.60;99.90;;;;;;4938543;28;20078;-81
2023/09/18 07:10:32;;;;;;;3.70;1.10;;;19.70;99.90;;;;;;4948509;28;20037;-81
2023/09/18 07:12:58;;;;;;;2.22;1.10;;;19.70;99.90;;;;;;4944325;28;20062;-82
2023/09/18 07:15:24;;;;;;;2.78;1.13;;;19.70;99.90;;;;;;4941865;28;20032;-81
2023/09/18 07:17:50;;;;;;;1.70;0.80;;;19.70;99.90;;;;;;4954295;28;20037;-82
2023/09/18 07:20:16;;;;;;;2.45;0.88;;;19.70;99.90;;;;;;4961238;28;20019;-82
2023/09/18 07:22:47;;;;;;;2.40;0.80;;;19.70;99.90;;;;;;4959394;28;20045;-83
2023/09/18 07:25:13;;;;;;;5.03;1.27;;;19.70;99.90;;;;;;4959230;28;20068;-82
2023/09/18 07:27:43;;;;;;;2.95;0.93;;;19.70;99.90;;;;;;4961182;28;20429;-82
2023/09/18 07:30:16;;;;;;;4.72;0.95;;;19.80;99.90;;;;;;4954096;28;20031;-81
2023/09/18 07:32:42;;;;;;;2.65;1.10;;;19.80;99.90;;;;;;4942590;28;20073;-81
2023/09/18 07:35:09;;;;;;;2.72;0.85;;;19.80;99.90;;;;;;4946018;28;20027;-82
2023/09/18 07:37:36;;;;;;;3.75;0.93;;;19.80;99.90;;;;;;4941138;28;20495;-81
2023/09/18 07:40:06;;;;;;;2.13;0.80;;;19.90;99.90;;;;;;4961313;28;20611;-81
2023/09/18 07:42:33;;;;;;;1.60;0.50;;;20.00;99.90;;;;;;4958130;28;20404;-82
2023/09/18 07:44:59;;;;;;;1.42;0.50;;;20.10;99.90;;;;;;4947639;28;20031;-81
2023/09/18 07:47:25;;;;;;;1.63;0.50;;;20.10;99.90;;;;;;4943749;28;20031;-83
2023/09/18 07:49:51;;;;;;;3.35;0.50;;;20.10;99.90;;;;;;4946271;28;20110;-83
2023/09/18 07:52:17;;;;;;;1.35;0.50;;;20.10;99.90;;;;;;4942614;28;20165;-81
2023/09/18 07:54:43;;;;;;;1.27;0.45;;;20.10;99.90;;;;;;4948448;28;20026;-83
2023/09/18 07:57:09;;;;;;;1.90;0.75;;;20.10;99.90;;;;;;4947276;28;20471;-79
2023/09/18 07:59:36;;;;;;;1.92;0.38;;;20.10;99.90;;;;;;4953291;28;20029;-83
2023/09/18 08:02:02;;;;;;;0.73;0.30;;;20.10;99.90;;;;;;4953572;28;20035;-82
2023/09/18 08:04:31;;;;;;;1.08;0.30;;;20.10;99.90;;;;;;4947069;28;20050;-83
2023/09/18 08:06:56;;;;;;;1.58;0.30;;;20.10;99.90;;;;;;4947654;28;20042;-83
2023/09/18 08:09:22;;;;;;;1.50;0.40;;;20.20;99.90;;;;;;4963727;28;20437;-81
2023/09/18 08:11:49;;;;;;;1.60;0.30;;;20.20;99.90;;;;;;4945955;28;20110;-81
2023/09/18 08:14:17;;;;;;;1.10;0.40;;;20.10;99.90;;;;;;4960270;28;20114;-86
2023/09/18 08:16:42;;;;;;;1.13;0.40;;;20.10;99.90;;;;;;4964825;28;20499;-82
2023/09/18 08:19:09;;;;;;;1.27;0.30;;;20.30;99.90;;;;;;4956214;28;20031;-82
2023/09/18 08:21:35;;;;;;;1.85;0.40;;;20.30;99.90;;;;;;4951314;28;20501;-83
2023/09/18 08:24:01;;;;;;;2.92;0.40;;;20.40;99.90;;;;;;4947115;28;20027;-83
2023/09/18 08:26:28;;;;;;;1.05;0.20;;;20.40;99.90;;;;;;4963702;28;20019;-80
2023/09/18 08:28:54;;;;;;;0.82;0.30;;;20.50;99.90;;;;;;4949738;28;20054;-81
2023/09/18 08:31:19;;;;;;;0.60;0.20;;;20.50;99.90;;;;;;4961606;28;20065;-84
2023/09/18 08:33:45;;;;;;;1.67;0.30;;;20.60;99.90;;;;;;4947676;28;20467;-82
2023/09/18 08:36:12;;;;;;;1.60;0.40;;;20.40;99.90;;;;;;4957218;28;20041;-81
2023/09/18 08:38:38;;;;;;;1.00;0.30;;;20.50;99.90;;;;;;4963035;28;20109;-82
2023/09/18 08:41:05;;;;;;;1.17;0.30;;;20.60;99.90;;;;;;4949932;28;20038;-82
2023/09/18 08:43:32;;;;;;;2.72;0.30;;;20.70;99.90;;;;;;4963578;28;20084;-81
2023/09/18 08:46:01;;;;;;;1.90;0.40;;;20.70;99.90;;;;;;4944604;28;20027;-82
2023/09/18 08:48:34;;;;;;;2.45;0.75;;;20.60;99.90;;;;;;4943799;28;20028;-83
2023/09/18 08:51:05;;;;;;;1.48;0.30;;;20.70;99.90;;;;;;4939866;28;20413;-82
2023/09/18 08:53:32;;;;;;;1.80;0.32;;;20.70;99.90;;;;;;4945055;28;20478;-81
2023/09/18 08:56:01;;;;;;;2.47;0.45;;;20.70;99.90;;;;;;4959979;28;20031;-81
2023/09/18 08:58:31;;;;;;;1.48;0.30;;;20.60;99.90;;;;;;4963814;28;20058;-82
2023/09/18 09:00:57;;;;;;;1.95;0.30;;;20.60;99.90;;;;;;4953648;28;20113;-82
2023/09/18 09:03:24;;;;;;;0.55;0.20;;;20.70;99.90;;;;;;4955931;28;20202;-82
2023/09/18 09:05:49;;;;;;;1.25;0.30;;;20.90;99.90;;;;;;4961157;28;20027;-81
2023/09/18 09:08:15;;;;;;;0.82;0.20;;;21.10;99.90;;;;;;4944156;28;20046;-82
2023/09/18 09:10:41;;;;;;;1.63;0.30;;;21.20;99.90;;;;;;4963562;28;20041;-83
2023/09/18 09:13:07;;;;;;;1.52;0.40;;;21.30;99.90;;;;;;4963238;28;20043;-82
2023/09/18 09:15:45;;;;;;;2.95;0.30;;;21.00;99.90;;;;;;4963820;28;20387;-83
2023/09/18 09:18:12;;;;;;;1.65;0.30;;;21.10;99.90;;;;;;4929563;28;20042;-83
2023/09/18 09:20:38;;;;;;;3.03;0.55;;;21.20;99.90;;;;;;4947691;28;20042;-81
2023/09/18 09:23:06;;;;;;;1.08;0.20;;;21.10;99.90;;;;;;4961030;28;20043;-83
2023/09/18 09:25:33;;;;;;;1.08;0.30;;;21.10;99.90;;;;;;4941276;28;20240;-81
2023/09/18 09:28:07;;;;;;;1.48;0.30;;;21.10;99.90;;;;;;4947257;28;20026;-83
2023/09/18 09:30:35;;;;;;;3.42;0.40;;;21.00;99.90;;;;;;4943611;28;20023;-83
2023/09/18 09:33:04;;;;;;;1.40;0.20;;;20.90;99.90;;;;;;4943576;28;20085;-82
2023/09/18 09:35:34;;;;;;;1.83;0.50;;;21.20;99.90;;;;;;4948588;28;20027;-82
2023/09/18 09:38:01;;;;;;;1.00;0.25;;;21.10;99.90;;;;;;4946190;28;20126;-83
2023/09/18 09:40:29;;;;;;;2.95;0.40;;;21.20;99.90;;;;;;4961799;28;20031;-81
2023/09/18 09:43:04;;;;;;;1.40;0.40;;;21.20;99.90;;;;;;4960176;28;20039;-81
2023/09/18 09:45:38;;;;;;;2.63;0.40;;;21.70;99.90;;;;;;4942159;28;20051;-81
2023/09/18 09:48:06;;;;;;;1.48;0.30;;;21.60;99.90;;;;;;4959144;28;20057;-82
2023/09/18 09:50:32;;;;;;;1.55;0.30;;;21.80;99.90;;;;;;4963455;28;20168;-82
2023/09/18 09:52:58;;;;;;;0.82;0.30;;;21.70;99.90;;;;;;4944632;28;20385;-81
2023/09/18 09:55:29;;;;;;;1.73;0.30;;;22.00;99.90;;;;;;4945421;28;20533;-81
2023/09/18 09:58:03;;;;;;;0.93;0.28;;;22.20;99.90;;;;;;4954064;28;20047;-82
2023/09/18 10:00:32;;;;;;;1.33;0.30;;;22.50;99.90;;;;;;4946284;28;20027;-81
2023/09/18 10:03:00;;;;;;;0.63;0.25;;;22.50;99.90;;;;;;4962788;28;20748;-82
2023/09/18 10:05:37;;;;;;;2.33;0.30;;;22.70;99.90;;;;;;4944626;28;20426;-81
2023/09/18 10:08:26;;;;;;;2.15;0.45;;;22.70;99.90;;;;;;4955889;28;20505;-83
2023/09/18 10:10:54;;;;;;;0.70;0.30;;;22.70;99.90;;;;;;4960088;28;20129;-79
2023/09/18 10:13:38;;;;;;;2.50;0.30;;;22.80;99.90;;;;;;4961577;28;20055;-83
2023/09/18 10:16:06;;;;;;;1.30;0.25;;;22.90;99.90;;;;;;4953471;28;20030;-83
2023/09/18 10:18:44;;;;;;;1.02;0.57;;;23.20;99.90;;;;;;4957738;28;20134;-83
2023/09/18 10:21:24;;;;;;;1.77;0.30;;;23.20;99.90;;;;;;4956670;28;20023;-82
2023/09/18 10:24:08;;;;;;;1.20;0.30;;;23.20;99.90;;;;;;4958038;28;20471;-83
2023/09/18 10:26:41;;;;;;;1.27;0.30;;;23.40;99.90;;;;;;4955073;28;20065;-81
2023/09/18 10:29:08;;;;;;;1.00;0.20;;;23.50;99.90;;;;;;4961841;28;20031;-83
2023/09/18 10:31:36;;;;;;;1.67;0.20;;;23.20;99.90;;;;;;4944707;28;20043;-81
2023/09/18 10:34:04;;;;;;;2.65;0.30;;;23.10;99.90;;;;;;4943400;28;20035;-82
2023/09/18 10:36:31;;;;;;;3.58;0.30;;;22.80;99.90;;;;;;4944260;28;21898;-82
2023/09/18 10:38:58;;;;;;;1.20;0.30;;;23.00;99.90;;;;;;4959827;28;20494;-82
2023/09/18 10:41:25;;;;;;;3.15;0.40;;;23.00;99.90;;;;;;4944691;28;20149;-82
2023/09/18 10:43:54;;;;;;;1.58;0.40;;;22.80;99.90;;;;;;4944539;28;20053;-80
2023/09/18 10:46:20;;;;;;;2.53;0.65;;;22.70;99.90;;;;;;4947954;28;20034;-81
2023/09/18 10:48:48;;;;;;;1.73;0.40;;;22.90;99.90;;;;;;4959032;28;20046;-80
2023/09/18 10:51:13;;;;;;;4.60;0.70;;;22.80;99.90;;;;;;4954631;28;20106;-81
2023/09/18 10:53:40;;;;;;;2.17;0.45;;;22.30;99.90;;;;;;4944698;28;20169;-81
2023/09/18 10:56:06;;;;;;;6.40;0.60;;;22.30;99.90;;;;;;4953925;28;20031;-82
2023/09/18 10:58:35;;;;;;;3.33;0.50;;;22.20;99.90;;;;;;4963835;28;20125;-81
2023/09/18 11:01:04;;;;;;;2.15;0.50;;;22.20;99.90;;;;;;4959191;28;20157;-82
2023/09/18 11:03:33;;;;;;;3.53;0.50;;;22.30;99.90;;;;;;4949316;28;20038;-82
2023/09/18 11:06:20;;;;;;;2.55;0.50;;;22.50;99.90;;;;;;4962169;28;20419;-81
2023/09/18 11:08:48;;;;;;;4.15;0.57;;;22.70;99.90;;;;;;4943600;28;20062;-81
2023/09/18 11:11:19;;;;;;;2.20;0.43;;;22.40;99.90;;;;;;4948190;28;20030;-81
2023/09/18 11:13:54;;;;;;;4.75;0.60;;;22.70;99.90;;;;;;4951187;28;20039;-80
2023/09/18 11:16:28;;;;;;;2.03;0.50;;;22.60;99.90;;;;;;4943998;28;20031;-80
2023/09/18 11:19:09;;;;;;;2.03;0.40;;;22.80;99.90;;;;;;4955088;28;20050;-81
2023/09/18 11:21:35;;;;;;;1.25;0.40;;;23.00;99.90;;;;;;4960340;28;20482;-80
2023/09/18 11:24:16;;;;;;;3.22;0.50;;;23.20;99.90;;;;;;4958735;28;20027;-82
2023/09/18 11:26:44;;;;;;;1.63;0.40;;;23.20;99.90;;;;;;4960667;28;20065;-83
2023/09/18 11:29:11;;;;;;;1.63;0.30;;;23.60;99.90;;;;;;4959379;28;20551;-81
2023/09/18 11:31:55;;;;;;;1.95;0.40;;;23.90;99.90;;;;;;4959734;28;20038;-81
2023/09/18 11:34:31;;;;;;;1.83;0.47;;;24.10;99.90;;;;;;4960433;28;20035;-80
2023/09/18 11:36:58;;;;;;;3.35;0.55;;;23.70;99.90;;;;;;4954053;28;20039;-81
2023/09/18 11:39:40;;;;;;;1.88;0.45;;;23.80;99.90;;;;;;4956169;28;20472;-82
2023/09/18 11:42:28;;;;;;;1.63;0.40;;;24.30;99.90;;;;;;4964275;28;20085;-81
2023/09/18 11:44:56;;;;;;;1.70;0.40;;;24.30;99.90;;;;;;4933408;28;20089;-81
2023/09/18 11:47:27;;;;;;;1.52;0.40;;;24.40;99.90;;;;;;4947974;28;20266;-82
2023/09/18 11:49:54;;;;;;;4.28;0.50;;;24.60;99.90;;;;;;4949496;28;20034;-83
2023/09/18 11:52:24;;;;;;;1.75;0.40;;;24.20;99.90;;;;;;4956209;28;20022;-81
2023/09/18 11:54:51;;;;;;;2.63;0.40;;;24.40;99.90;;;;;;4964499;28;20037;-80
2023/09/18 11:57:18;;;;;;;2.47;0.40;;;24.10;99.90;;;;;;4960727;28;20047;-81
2023/09/18 11:59:46;;;;;;;1.13;0.30;;;23.70;99.90;;;;;;4950551;28;20031;-82
2023/09/18 12:02:34;;;;;;;2.25;0.40;;;23.40;99.90;;;;;;4961618;28;20049;-80
2023/09/18 12:05:13;;;;;;;1.53;0.40;;;23.20;99.90;;;;;;4962645;28;20076;-80
2023/09/18 12:07:44;;;;;;;2.70;0.70;;;22.90;99.90;;;;;;4963770;28;20082;-80
2023/09/18 12:10:11;;;;;;;3.13;0.45;;;22.60;99.90;;;;;;4945890;28;20038;-81
2023/09/18 12:12:37;;;;;;;3.15;0.70;;;22.10;99.90;;;;;;4963869;28;20039;-80
2023/09/18 12:15:03;;;;;;;4.55;0.60;;;21.40;99.90;;;;;;4964690;28;20343;-79
2023/09/18 12:17:29;;;;;;;4.35;0.90;;;21.10;99.90;;;;;;4945737;28;20041;-80
2023/09/18 12:19:55;;;;;;;2.63;0.80;;;21.10;99.90;;;;;;4947274;28;20454;-80
2023/09/18 12:22:28;;;;;;;1.88;0.52;;;21.10;99.90;;;;;;4943806;28;20023;-80
2023/09/18 12:25:08;;;;;;;2.22;0.65;;;21.40;99.90;;;;;;4945213;28;20486;-80
2023/09/18 12:27:36;;;;;;;3.15;0.90;;;21.70;99.90;;;;;;4958774;28;20035;-80
2023/09/18 12:30:04;;;;;;;2.53;0.80;;;21.80;99.90;;;;;;4965057;28;20439;-80
2023/09/18 12:32:32;;;;;;;5.00;0.95;;;22.10;99.90;;;;;;4944005;28;20035;-79
2023/09/18 12:34:58;;;;;;;2.03;0.82;;;22.10;99.90;;;;;;4947304;28;20037;-81
2023/09/18 12:37:24;;;;;;;1.40;0.50;;;22.20;99.90;;;;;;4964374;28;20121;-81
2023/09/18 12:39:51;;;;;;;2.00;0.80;;;22.40;99.90;;;;;;4962647;28;20110;-79
2023/09/18 12:42:20;;;;;;;3.22;0.68;;;22.30;99.90;;;;;;4963479;28;20409;-80
2023/09/18 12:44:48;;;;;;;3.47;0.80;;;22.60;99.90;;;;;;4950135;28;20609;-82
2023/09/18 12:47:14;;;;;;;1.45;0.60;;;22.80;99.90;;;;;;4945113;28;20053;-80
2023/09/18 12:49:40;;;;;;;3.33;0.70;;;23.10;99.90;;;;;;4963524;28;20023;-81
2023/09/18 12:52:06;;;;;;;2.50;0.70;;;23.00;99.90;;;;;;4955276;28;20407;-82